createdAt,value
2018-12-15T00:00:36.386Z,67.60
2018-12-15T00:03:04.791Z,67.90
2018-12-15T00:05:33.215Z,67.90
2018-12-15T00:08:01.616Z,68.10
2018-12-15T00:10:30.032Z,67.70
2018-12-15T00:12:58.435Z,67.90
2018-12-15T00:15:26.962Z,68.00
2018-12-15T00:17:55.358Z,68.40
2018-12-15T00:20:23.794Z,67.80
2018-12-15T00:22:52.198Z,67.60
2018-12-15T00:25:20.605Z,68.00
2018-12-15T00:27:49.005Z,68.00
2018-12-15T00:30:17.421Z,68.10
2018-12-15T00:32:45.875Z,68.20
2018-12-15T00:35:14.338Z,68.00
2018-12-15T00:37:42.767Z,68.00
2018-12-15T00:40:11.239Z,67.90
2018-12-15T00:42:39.685Z,68.00
2018-12-15T00:45:08.160Z,68.40
2018-12-15T00:47:36.596Z,68.50
2018-12-15T00:50:05.303Z,68.30
2018-12-15T00:52:33.792Z,68.30
2018-12-15T00:55:02.307Z,68.30
2018-12-15T00:57:30.748Z,68.00
2018-12-15T00:59:59.220Z,68.10
2018-12-15T01:02:27.696Z,68.00
2018-12-15T01:04:56.143Z,68.00
2018-12-15T01:07:24.563Z,68.00
2018-12-15T01:09:53.051Z,68.10
2018-12-15T01:12:21.477Z,68.10
2018-12-15T01:14:49.923Z,68.00
2018-12-15T01:17:20.653Z,68.40
2018-12-15T01:19:48.832Z,68.00
2018-12-15T01:22:17.294Z,68.10
2018-12-15T01:24:45.761Z,67.80
2018-12-15T01:27:14.196Z,68.10
2018-12-15T01:29:42.652Z,68.10
2018-12-15T01:32:11.076Z,68.50
2018-12-15T01:34:39.539Z,68.60
2018-12-15T01:37:07.956Z,68.50
2018-12-15T01:39:36.731Z,68.60
2018-12-15T01:42:05.332Z,68.00
2018-12-15T01:44:33.787Z,68.50
2018-12-15T01:47:02.220Z,68.40
2018-12-15T01:49:30.695Z,68.30
2018-12-15T01:51:59.127Z,68.30
2018-12-15T01:54:27.571Z,67.80
2018-12-15T01:56:56.001Z,68.50
2018-12-15T01:59:24.478Z,68.90
2018-12-15T02:01:52.896Z,68.80
2018-12-15T02:04:21.324Z,68.50
2018-12-15T02:06:49.764Z,68.50
2018-12-15T02:09:18.216Z,68.80
2018-12-15T02:11:46.627Z,68.50
2018-12-15T02:14:15.072Z,68.70
2018-12-15T02:16:43.492Z,68.80
2018-12-15T02:19:11.939Z,68.10
2018-12-15T02:21:40.351Z,68.40
2018-12-15T02:24:08.768Z,68.50
2018-12-15T02:26:37.203Z,68.30
2018-12-15T02:29:05.611Z,68.30
2018-12-15T02:31:34.961Z,68.20
2018-12-15T02:34:03.388Z,68.30
2018-12-15T02:36:31.824Z,68.10
2018-12-15T02:39:00.279Z,68.30
2018-12-15T02:41:28.716Z,68.60
2018-12-15T02:43:57.136Z,68.50
2018-12-15T02:46:25.578Z,68.40
2018-12-15T02:48:53.996Z,68.50
2018-12-15T02:51:22.440Z,68.60
2018-12-15T02:53:50.855Z,68.30
2018-12-15T02:56:19.302Z,68.20
2018-12-15T02:58:47.724Z,67.90
2018-12-15T03:01:16.163Z,68.00
2018-12-15T03:03:44.579Z,68.10
2018-12-15T03:06:13.077Z,68.30
2018-12-15T03:08:41.518Z,68.10
2018-12-15T03:11:09.962Z,67.90
2018-12-15T03:13:38.372Z,67.80
2018-12-15T03:16:06.825Z,67.80
2018-12-15T03:18:35.454Z,68.20
2018-12-15T03:21:03.894Z,68.50
2018-12-15T03:23:32.315Z,68.20
2018-12-15T03:26:00.761Z,68.20
2018-12-15T03:28:29.176Z,67.30
2018-12-15T03:30:57.649Z,67.80
2018-12-15T03:33:26.184Z,67.70
2018-12-15T03:35:54.625Z,67.60
2018-12-15T03:38:23.046Z,67.20
2018-12-15T03:40:51.475Z,67.50
2018-12-15T03:43:19.899Z,67.40
2018-12-15T03:45:48.339Z,67.70
2018-12-15T03:48:16.780Z,67.70
2018-12-15T03:50:45.216Z,67.50
2018-12-15T03:53:13.632Z,67.80
2018-12-15T03:55:42.081Z,67.60
2018-12-15T03:58:10.507Z,67.70
2018-12-15T04:00:38.956Z,67.60
2018-12-15T04:03:07.380Z,67.40
2018-12-15T04:05:35.826Z,67.80
2018-12-15T04:08:04.244Z,68.00
2018-12-15T04:10:32.688Z,67.80
2018-12-15T04:13:01.128Z,68.50
2018-12-15T04:15:29.589Z,68.10
2018-12-15T04:18:03.653Z,67.90
2018-12-15T04:20:28.473Z,67.90
2018-12-15T04:22:56.892Z,68.10
2018-12-15T04:25:25.341Z,68.30
2018-12-15T04:27:53.776Z,68.10
2018-12-15T04:30:22.224Z,68.10
2018-12-15T04:32:50.672Z,68.20
2018-12-15T04:35:19.091Z,68.40
2018-12-15T04:37:47.544Z,69.00
2018-12-15T04:40:16.336Z,67.90
2018-12-15T04:42:44.786Z,68.60
2018-12-15T04:45:14.037Z,68.30
2018-12-15T04:47:42.589Z,68.30
2018-12-15T04:50:10.997Z,68.00
2018-12-15T04:52:39.431Z,68.40
2018-12-15T04:55:07.973Z,68.10
2018-12-15T04:57:36.441Z,68.00
2018-12-15T05:00:05.700Z,67.80
2018-12-15T05:02:34.144Z,67.70
2018-12-15T05:05:02.578Z,68.00
2018-12-15T05:07:31.033Z,67.80
2018-12-15T05:09:59.444Z,68.00
2018-12-15T05:12:27.891Z,68.20
2018-12-15T05:14:56.328Z,68.20
2018-12-15T05:17:24.772Z,68.00
2018-12-15T05:19:53.314Z,67.80
2018-12-15T05:22:21.756Z,67.90
2018-12-15T05:24:50.404Z,67.70
2018-12-15T05:27:19.068Z,68.50
2018-12-15T05:29:47.493Z,68.20
2018-12-15T05:32:15.949Z,68.20
2018-12-15T05:34:44.375Z,68.10
2018-12-15T05:37:12.813Z,68.00
2018-12-15T05:39:41.237Z,68.60
2018-12-15T05:42:09.680Z,68.70
2018-12-15T05:44:38.111Z,68.70
2018-12-15T05:47:06.548Z,68.80
2018-12-15T05:49:34.960Z,68.90
2018-12-15T05:52:03.408Z,68.60
2018-12-15T05:54:31.828Z,69.10
2018-12-15T05:57:00.276Z,68.70
2018-12-15T05:59:28.700Z,68.80
2018-12-15T06:01:57.373Z,68.80
2018-12-15T06:04:25.788Z,68.80
2018-12-15T06:06:54.227Z,68.60
2018-12-15T06:09:22.636Z,69.50
2018-12-15T06:11:51.077Z,68.60
2018-12-15T06:14:19.493Z,69.00
2018-12-15T06:16:47.949Z,69.20
2018-12-15T06:19:16.434Z,68.90
2018-12-15T06:21:44.888Z,69.30
2018-12-15T06:24:13.320Z,69.20
2018-12-15T06:26:41.789Z,69.40
2018-12-15T06:29:10.240Z,69.50
2018-12-15T06:31:38.680Z,69.00
2018-12-15T06:34:07.123Z,69.40
2018-12-15T06:36:35.536Z,69.20
2018-12-15T06:39:06.698Z,69.30
2018-12-15T06:41:35.134Z,69.60
2018-12-15T06:44:03.587Z,69.80
2018-12-15T06:46:32.020Z,69.20
2018-12-15T06:49:00.461Z,69.80
2018-12-15T06:51:28.884Z,69.80
2018-12-15T06:53:57.330Z,69.90
2018-12-15T06:56:26.808Z,70.00
2018-12-15T06:58:55.774Z,69.90
2018-12-15T07:01:24.207Z,70.10
2018-12-15T07:03:52.658Z,70.30
2018-12-15T07:06:21.152Z,70.20
2018-12-15T07:08:49.584Z,70.70
2018-12-15T07:11:18.005Z,70.30
2018-12-15T07:13:46.457Z,69.80
2018-12-15T07:16:14.885Z,70.00
2018-12-15T07:18:44.944Z,69.80
2018-12-15T07:21:13.578Z,69.70
2018-12-15T07:23:42.024Z,69.90
2018-12-15T07:26:10.500Z,70.00
2018-12-15T07:28:39.028Z,69.80
2018-12-15T07:31:07.527Z,69.80
2018-12-15T07:33:35.999Z,69.60
2018-12-15T07:36:04.448Z,69.80
2018-12-15T07:38:32.878Z,70.00
2018-12-15T07:41:01.327Z,69.70
2018-12-15T07:43:29.763Z,70.00
2018-12-15T07:45:58.239Z,69.70
2018-12-15T07:48:26.727Z,70.00
2018-12-15T07:50:55.147Z,70.00
2018-12-15T07:53:23.587Z,70.00
2018-12-15T07:55:52.103Z,70.00
2018-12-15T07:58:20.543Z,70.00
2018-12-15T08:00:48.974Z,70.00
2018-12-15T08:03:17.407Z,69.80
2018-12-15T08:05:45.852Z,69.80
2018-12-15T08:08:14.305Z,70.30
2018-12-15T08:10:48.113Z,70.00
2018-12-15T08:13:22.865Z,70.40
2018-12-15T08:15:51.388Z,70.10
2018-12-15T08:18:19.847Z,70.10
2018-12-15T08:20:48.391Z,69.50
2018-12-15T08:23:16.831Z,70.00
2018-12-15T08:25:45.275Z,69.90
2018-12-15T08:28:13.728Z,69.50
2018-12-15T08:30:42.188Z,69.60
2018-12-15T08:33:10.648Z,69.90
2018-12-15T08:35:39.067Z,69.90
2018-12-15T08:38:07.523Z,69.50
2018-12-15T08:40:35.980Z,69.70
2018-12-15T08:43:04.404Z,68.90
2018-12-15T08:45:32.873Z,69.60
2018-12-15T08:48:01.300Z,69.80
2018-12-15T08:50:29.740Z,69.90
2018-12-15T08:52:58.171Z,69.80
2018-12-15T08:55:26.620Z,69.40
2018-12-15T08:57:55.154Z,69.00
2018-12-15T09:00:23.617Z,68.90
2018-12-15T09:02:52.168Z,68.40
2018-12-15T09:05:20.619Z,68.30
2018-12-15T09:07:49.039Z,68.10
2018-12-15T09:10:17.592Z,68.80
2018-12-15T09:12:46.048Z,69.10
2018-12-15T09:15:14.497Z,68.60
2018-12-15T09:17:42.923Z,68.80
2018-12-15T09:20:11.379Z,68.70
2018-12-15T09:22:39.803Z,68.50
2018-12-15T09:25:08.305Z,67.60
2018-12-15T09:27:36.761Z,67.70
2018-12-15T09:30:06.637Z,67.50
2018-12-15T09:32:35.204Z,66.60
2018-12-15T09:35:03.893Z,66.50
2018-12-15T09:37:32.334Z,67.00
2018-12-15T09:40:00.812Z,66.60
2018-12-15T09:42:29.257Z,66.60
2018-12-15T09:44:57.696Z,66.80
2018-12-15T09:47:26.383Z,66.60
2018-12-15T09:49:55.059Z,66.60
2018-12-15T09:52:23.641Z,66.60
2018-12-15T09:54:52.140Z,66.60
2018-12-15T09:57:20.616Z,65.90
2018-12-15T09:59:49.087Z,66.80
2018-12-15T10:02:18.023Z,66.60
2018-12-15T10:04:46.806Z,66.40
2018-12-15T10:07:15.804Z,66.40
2018-12-15T10:09:44.673Z,66.50
2018-12-15T10:12:13.415Z,65.70
2018-12-15T10:14:42.321Z,66.70
2018-12-15T10:17:11.226Z,66.50
2018-12-15T10:19:40.176Z,66.10
2018-12-15T10:22:08.669Z,66.60
2018-12-15T10:24:37.527Z,66.70
2018-12-15T10:27:06.249Z,66.30
2018-12-15T10:29:40.076Z,66.10
2018-12-15T10:32:14.229Z,66.70
2018-12-15T10:34:42.696Z,66.10
2018-12-15T10:37:11.226Z,66.00
2018-12-15T10:39:39.754Z,65.80
2018-12-15T10:42:08.259Z,65.70
2018-12-15T10:44:36.724Z,65.90
2018-12-15T10:47:05.219Z,65.90
2018-12-15T10:49:33.678Z,65.50
2018-12-15T10:52:02.146Z,65.70
2018-12-15T10:54:30.596Z,65.00
2018-12-15T10:56:59.051Z,65.10
2018-12-15T10:59:27.491Z,65.30
2018-12-15T11:01:55.940Z,65.40
2018-12-15T11:04:24.377Z,64.80
2018-12-15T11:06:52.828Z,65.40
2018-12-15T11:09:21.302Z,65.30
2018-12-15T11:11:49.775Z,65.50
2018-12-15T11:14:18.221Z,64.90
2018-12-15T11:16:46.684Z,64.20
2018-12-15T11:19:15.122Z,65.10
2018-12-15T11:21:43.730Z,65.20
2018-12-15T11:24:12.293Z,65.00
2018-12-15T11:26:40.768Z,64.80
2018-12-15T11:29:09.237Z,65.00
2018-12-15T11:31:37.716Z,65.40
2018-12-15T11:34:06.180Z,65.10
2018-12-15T11:36:34.662Z,65.30
2018-12-15T11:39:05.036Z,65.70
2018-12-15T11:41:33.488Z,65.50
2018-12-15T11:44:01.918Z,65.80
2018-12-15T11:46:30.384Z,65.20
2018-12-15T11:48:58.829Z,65.50
2018-12-15T11:51:27.324Z,65.50
2018-12-15T11:53:55.756Z,65.60
2018-12-15T11:56:24.251Z,65.20
2018-12-15T11:58:52.714Z,65.20
2018-12-15T12:01:21.249Z,65.10
2018-12-15T12:03:49.810Z,64.70
2018-12-15T12:06:18.248Z,64.50
2018-12-15T12:08:46.703Z,64.90
2018-12-15T12:11:15.180Z,64.90
2018-12-15T12:13:43.656Z,63.80
2018-12-15T12:16:12.168Z,64.40
2018-12-15T12:18:40.633Z,64.30
2018-12-15T12:21:09.068Z,65.00
2018-12-15T12:23:37.520Z,65.00
2018-12-15T12:26:05.947Z,64.90
2018-12-15T12:28:34.400Z,64.60
2018-12-15T12:31:02.870Z,64.80
2018-12-15T12:33:31.295Z,64.50
2018-12-15T12:35:59.701Z,65.00
2018-12-15T12:38:28.088Z,65.10
2018-12-15T12:40:56.488Z,64.90
2018-12-15T12:43:24.897Z,65.50
2018-12-15T12:45:53.348Z,65.30
2018-12-15T12:48:21.747Z,65.10
2018-12-15T12:50:50.141Z,65.00
2018-12-15T12:53:18.535Z,65.10
2018-12-15T12:55:46.927Z,65.00
2018-12-15T12:58:15.337Z,65.00
2018-12-15T13:00:43.725Z,65.10
2018-12-15T13:03:12.114Z,65.10
2018-12-15T13:05:40.524Z,65.60
2018-12-15T13:08:08.916Z,64.90
2018-12-15T13:10:37.330Z,65.40
2018-12-15T13:13:05.713Z,64.70
2018-12-15T13:15:34.100Z,64.80
2018-12-15T13:18:02.489Z,64.90
2018-12-15T13:20:31.010Z,64.90
2018-12-15T13:22:59.584Z,64.60
2018-12-15T13:25:27.979Z,64.80
2018-12-15T13:27:56.363Z,65.10
2018-12-15T13:30:25.201Z,64.80
2018-12-15T13:32:54.155Z,65.10
2018-12-15T13:35:22.920Z,64.90
2018-12-15T13:37:51.754Z,64.80
2018-12-15T13:40:20.537Z,65.70
2018-12-15T13:42:49.435Z,65.30
2018-12-15T13:45:18.441Z,65.40
2018-12-15T13:47:47.273Z,65.40
2018-12-15T13:50:16.338Z,65.60
2018-12-15T13:52:45.168Z,65.20
2018-12-15T13:55:13.949Z,65.80
2018-12-15T13:57:42.358Z,66.10
2018-12-15T14:00:10.952Z,66.20
2018-12-15T14:02:39.402Z,66.30
2018-12-15T14:05:07.966Z,66.30
2018-12-15T14:07:36.365Z,66.80
2018-12-15T14:10:05.553Z,66.50
2018-12-15T14:12:34.061Z,66.40
2018-12-15T14:15:02.490Z,66.60
2018-12-15T14:17:30.899Z,66.80
2018-12-15T14:19:59.396Z,66.80
2018-12-15T14:22:27.787Z,66.80
2018-12-15T14:24:56.440Z,66.80
2018-12-15T14:27:24.814Z,66.80
2018-12-15T14:29:53.319Z,66.80
2018-12-15T14:32:21.798Z,66.70
2018-12-15T14:34:50.314Z,66.70
2018-12-15T14:37:18.850Z,66.80
2018-12-15T14:39:47.930Z,66.80
2018-12-15T14:42:16.973Z,66.80
2018-12-15T14:44:45.812Z,66.60
2018-12-15T14:47:14.687Z,67.20
2018-12-15T14:49:43.478Z,66.70
2018-12-15T14:52:12.378Z,66.60
2018-12-15T14:54:41.186Z,66.60
2018-12-15T14:57:10.148Z,66.70
2018-12-15T14:59:39.070Z,66.70
2018-12-15T15:02:07.981Z,66.60
2018-12-15T15:04:36.838Z,66.60
2018-12-15T15:07:05.467Z,66.70
2018-12-15T15:09:33.953Z,66.70
2018-12-15T15:12:02.478Z,66.60
2018-12-15T15:14:30.929Z,66.70
2018-12-15T15:16:59.419Z,66.60
2018-12-15T15:19:27.925Z,66.60
2018-12-15T15:21:56.426Z,66.70
2018-12-15T15:24:24.971Z,66.60
2018-12-15T15:26:53.465Z,66.60
2018-12-15T15:29:21.977Z,66.50
2018-12-15T15:31:50.467Z,66.60
2018-12-15T15:34:18.882Z,66.60
2018-12-15T15:36:47.310Z,66.60
2018-12-15T15:39:15.742Z,66.60
2018-12-15T15:41:44.166Z,66.60
2018-12-15T15:44:12.591Z,66.60
2018-12-15T15:46:41.021Z,66.10
2018-12-15T15:49:09.399Z,65.80
2018-12-15T15:51:37.797Z,66.50
2018-12-15T15:54:06.256Z,66.50
2018-12-15T15:56:35.830Z,66.00
2018-12-15T15:59:04.372Z,66.30
2018-12-15T16:01:32.903Z,66.30
2018-12-15T16:04:01.300Z,66.40
2018-12-15T16:06:29.751Z,66.50
2018-12-15T16:08:58.237Z,66.60
2018-12-15T16:11:30.741Z,66.50
2018-12-15T16:13:59.158Z,66.50
2018-12-15T16:16:33.449Z,66.50
2018-12-15T16:19:01.912Z,66.60
2018-12-15T16:21:30.420Z,66.50
2018-12-15T16:23:58.829Z,66.50
2018-12-15T16:26:27.266Z,66.40
2018-12-15T16:28:55.676Z,66.50
2018-12-15T16:31:24.095Z,66.50
2018-12-15T16:33:52.622Z,66.50
2018-12-15T16:36:21.087Z,66.50
2018-12-15T16:38:49.531Z,67.10
2018-12-15T16:41:18.014Z,66.50
2018-12-15T16:43:46.454Z,66.50
2018-12-15T16:46:15.057Z,66.40
2018-12-15T16:48:43.581Z,66.50
2018-12-15T16:51:12.068Z,66.40
2018-12-15T16:53:40.503Z,66.50
2018-12-15T16:56:08.977Z,66.50
2018-12-15T16:58:37.434Z,66.40
2018-12-15T17:01:06.148Z,66.50
2018-12-15T17:03:34.722Z,66.40
2018-12-15T17:06:03.335Z,66.40
2018-12-15T17:08:31.815Z,66.40
2018-12-15T17:11:00.298Z,66.40
2018-12-15T17:13:28.797Z,66.40
2018-12-15T17:15:57.273Z,66.40
2018-12-15T17:18:25.726Z,65.80
2018-12-15T17:20:56.769Z,66.00
2018-12-15T17:23:24.736Z,66.30
2018-12-15T17:25:53.205Z,66.40
2018-12-15T17:28:21.704Z,66.40
2018-12-15T17:30:50.220Z,66.40
2018-12-15T17:33:18.714Z,66.40
2018-12-15T17:35:47.163Z,65.70
2018-12-15T17:38:15.647Z,65.60
2018-12-15T17:40:44.109Z,65.70
2018-12-15T17:43:12.590Z,66.20
2018-12-15T17:45:41.036Z,66.20
2018-12-15T17:48:09.549Z,66.20
2018-12-15T17:50:38.050Z,66.00
2018-12-15T17:53:06.532Z,65.40
2018-12-15T17:55:35.059Z,65.40
2018-12-15T17:58:03.690Z,65.80
2018-12-15T18:00:32.293Z,65.80
2018-12-15T18:03:00.785Z,65.60
2018-12-15T18:05:29.242Z,66.00
2018-12-15T18:07:57.719Z,66.00
2018-12-15T18:10:26.150Z,66.10
2018-12-15T18:12:54.633Z,65.80
2018-12-15T18:15:23.133Z,66.00
2018-12-15T18:17:51.604Z,66.00
2018-12-15T18:20:20.077Z,66.00
2018-12-15T18:22:48.556Z,66.00
2018-12-15T18:25:17.034Z,65.90
2018-12-15T18:27:45.533Z,65.90
2018-12-15T18:30:13.974Z,65.90
2018-12-15T18:32:42.413Z,65.90
2018-12-15T18:35:10.820Z,66.30
2018-12-15T18:37:39.227Z,66.60
2018-12-15T18:40:08.801Z,66.60
2018-12-15T18:42:37.222Z,66.60
2018-12-15T18:45:06.879Z,66.80
2018-12-15T18:47:35.306Z,66.10
2018-12-15T18:50:04.368Z,66.50
2018-12-15T18:52:32.822Z,66.70
2018-12-15T18:55:01.249Z,67.00
2018-12-15T18:57:29.677Z,67.20
2018-12-15T18:59:58.085Z,67.50
2018-12-15T19:02:26.577Z,67.60
2018-12-15T19:04:54.983Z,67.70
2018-12-15T19:07:23.479Z,67.80
2018-12-15T19:09:51.927Z,68.10
2018-12-15T19:12:20.405Z,67.90
2018-12-15T19:14:48.849Z,68.00
2018-12-15T19:17:17.749Z,68.10
2018-12-15T19:19:46.157Z,68.30
2018-12-15T19:22:14.827Z,68.30
2018-12-15T19:24:43.220Z,68.00
2018-12-15T19:27:11.648Z,68.00
2018-12-15T19:29:40.418Z,68.10
2018-12-15T19:32:08.841Z,68.50
2018-12-15T19:34:37.318Z,69.20
2018-12-15T19:37:06.024Z,69.10
2018-12-15T19:39:34.515Z,69.10
2018-12-15T19:42:03.056Z,69.10
2018-12-15T19:44:31.555Z,69.40
2018-12-15T19:47:00.075Z,69.50
2018-12-15T19:49:28.527Z,69.90
2018-12-15T19:51:57.043Z,69.60
2018-12-15T19:54:25.565Z,69.80
2018-12-15T19:56:54.315Z,70.00
2018-12-15T19:59:22.772Z,70.40
2018-12-15T20:01:51.224Z,70.60
2018-12-15T20:04:19.733Z,70.70
2018-12-15T20:06:48.271Z,70.90
2018-12-15T20:09:16.737Z,71.30
2018-12-15T20:11:45.201Z,71.30
2018-12-15T20:14:13.681Z,71.30
2018-12-15T20:16:42.142Z,71.70
2018-12-15T20:19:10.627Z,71.70
2018-12-15T20:21:39.066Z,72.00
2018-12-15T20:24:07.551Z,71.70
2018-12-15T20:26:36.134Z,72.30
2018-12-15T20:29:04.752Z,72.40
2018-12-15T20:31:33.186Z,72.40
2018-12-15T20:34:01.631Z,72.30
2018-12-15T20:36:30.049Z,72.40
2018-12-15T20:38:58.492Z,72.40
2018-12-15T20:41:26.913Z,72.50
2018-12-15T20:43:55.330Z,72.80
2018-12-15T20:46:24.166Z,73.70
2018-12-15T20:48:52.697Z,73.70
2018-12-15T20:51:21.082Z,73.80
2018-12-15T20:53:49.509Z,73.90
2018-12-15T20:56:17.886Z,73.90
2018-12-15T20:58:46.330Z,73.80
2018-12-15T21:01:14.730Z,73.90
2018-12-15T21:03:43.156Z,74.30
2018-12-15T21:06:11.574Z,74.30
2018-12-15T21:08:40.009Z,74.40
2018-12-15T21:11:08.465Z,74.60
2018-12-15T21:13:36.887Z,75.00
2018-12-15T21:16:05.287Z,75.10
2018-12-15T21:18:33.721Z,75.00
2018-12-15T21:21:02.136Z,75.00
2018-12-15T21:23:30.562Z,75.20
2018-12-15T21:25:58.953Z,75.70
2018-12-15T21:28:27.358Z,75.90
2018-12-15T21:30:55.758Z,75.90
2018-12-15T21:33:24.218Z,75.70
2018-12-15T21:35:52.674Z,75.90
2018-12-15T21:38:21.089Z,75.80
2018-12-15T21:40:49.474Z,76.00
2018-12-15T21:43:17.885Z,75.80
2018-12-15T21:45:46.361Z,76.40
2018-12-15T21:48:14.767Z,75.80
2018-12-15T21:50:43.164Z,76.20
2018-12-15T21:53:11.567Z,76.10
2018-12-15T21:55:39.994Z,77.10
2018-12-15T21:58:08.411Z,76.40
2018-12-15T22:00:36.823Z,77.00
2018-12-15T22:03:05.247Z,77.10
2018-12-15T22:05:33.642Z,77.30
2018-12-15T22:08:02.056Z,77.50
2018-12-15T22:10:30.509Z,77.50
2018-12-15T22:12:58.937Z,77.40
2018-12-15T22:15:27.358Z,77.40
2018-12-15T22:17:55.836Z,77.30
2018-12-15T22:20:24.527Z,77.20
2018-12-15T22:22:52.981Z,77.30
2018-12-15T22:25:21.505Z,77.10
2018-12-15T22:27:49.878Z,76.90
2018-12-15T22:30:18.310Z,77.10
2018-12-15T22:32:46.787Z,76.90
2018-12-15T22:35:15.275Z,77.10
2018-12-15T22:37:43.786Z,76.80
2018-12-15T22:40:12.994Z,77.10
2018-12-15T22:42:41.563Z,77.00
2018-12-15T22:45:10.066Z,76.90
2018-12-15T22:47:38.554Z,76.90
2018-12-15T22:50:08.059Z,76.80
2018-12-15T22:52:36.532Z,76.40
2018-12-15T22:55:05.274Z,76.40
2018-12-15T22:57:33.804Z,76.10
2018-12-15T23:00:02.318Z,76.10
2018-12-15T23:02:30.918Z,76.20
2018-12-15T23:04:59.405Z,76.10
2018-12-15T23:07:27.867Z,76.00
2018-12-15T23:09:56.359Z,75.90
2018-12-15T23:12:24.830Z,75.80
2018-12-15T23:14:53.340Z,75.70
2018-12-15T23:17:21.846Z,75.20
2018-12-15T23:19:50.346Z,75.40
2018-12-15T23:22:18.822Z,75.80
2018-12-15T23:24:47.309Z,75.90
2018-12-15T23:27:15.782Z,76.00
2018-12-15T23:29:44.267Z,76.00
2018-12-15T23:32:12.799Z,76.30
2018-12-15T23:34:41.319Z,75.90
2018-12-15T23:37:09.786Z,75.70
2018-12-15T23:39:38.312Z,75.80
2018-12-15T23:42:06.781Z,75.80
2018-12-15T23:44:35.298Z,75.80
2018-12-15T23:47:03.802Z,75.70
2018-12-15T23:49:32.591Z,75.70
2018-12-15T23:52:01.185Z,76.00
2018-12-15T23:54:29.730Z,76.00
2018-12-15T23:56:58.182Z,75.90
2018-12-15T23:59:26.706Z,75.60
